createdAt,value
2023-01-31T00:03:53.819Z,4.33
2023-01-31T00:08:55.143Z,4.35
2023-01-31T00:13:56.338Z,4.37
2023-01-31T00:18:57.571Z,4.36
2023-01-31T00:23:58.897Z,4.35
2023-01-31T00:29:00.108Z,4.36
2023-01-31T00:34:01.404Z,4.34
2023-01-31T00:39:02.627Z,4.33
2023-01-31T00:44:03.853Z,4.30
2023-01-31T00:49:05.053Z,4.25
2023-01-31T00:54:06.437Z,4.19
2023-01-31T00:59:08.624Z,4.16
2023-01-31T01:04:09.853Z,4.13
2023-01-31T01:09:11.089Z,4.11
2023-01-31T01:14:12.282Z,4.09
2023-01-31T01:19:13.481Z,4.06
2023-01-31T01:24:14.714Z,4.06
2023-01-31T01:29:16.007Z,4.06
2023-01-31T01:34:17.228Z,4.06
2023-01-31T01:39:18.408Z,4.06
2023-01-31T01:44:19.735Z,4.07
2023-01-31T01:49:20.957Z,4.06
2023-01-31T01:54:22.187Z,4.03
2023-01-31T01:59:23.396Z,3.98
2023-01-31T02:04:24.556Z,3.94
2023-01-31T02:09:25.804Z,3.95
2023-01-31T02:14:27.043Z,3.96
2023-01-31T02:19:28.759Z,3.98
2023-01-31T02:24:30.170Z,4.01
2023-01-31T02:29:31.390Z,4.01
2023-01-31T02:34:32.603Z,3.98
2023-01-31T02:39:33.852Z,3.93
2023-01-31T02:44:53.552Z,3.85
2023-01-31T02:49:54.811Z,3.80
2023-01-31T02:55:14.568Z,3.76
2023-01-31T03:00:15.897Z,3.78
2023-01-31T03:05:17.262Z,3.78
2023-01-31T03:10:18.685Z,3.78
2023-01-31T03:15:20.295Z,3.79
2023-01-31T03:20:21.634Z,3.75
2023-01-31T03:25:24.051Z,3.75
2023-01-31T03:30:25.544Z,3.72
2023-01-31T03:35:26.817Z,3.64
2023-01-31T03:40:28.012Z,3.55
2023-01-31T03:45:29.260Z,3.51
2023-01-31T03:50:30.537Z,3.46
2023-01-31T03:55:32.348Z,3.17
2023-01-31T04:00:33.620Z,3.01
2023-01-31T04:05:34.806Z,2.91
2023-01-31T04:10:36.036Z,2.80
2023-01-31T04:15:37.232Z,2.72
2023-01-31T04:20:38.470Z,2.67
2023-01-31T04:25:39.658Z,2.66
2023-01-31T04:30:40.917Z,2.59
2023-01-31T04:35:42.119Z,2.47
2023-01-31T04:40:43.345Z,2.33
2023-01-31T04:45:44.633Z,2.24
2023-01-31T04:50:45.926Z,2.08
2023-01-31T04:55:47.211Z,1.96
2023-01-31T05:00:48.528Z,1.85
2023-01-31T05:05:49.774Z,1.88
2023-01-31T05:10:51.022Z,1.87
2023-01-31T05:15:52.415Z,1.98
2023-01-31T05:20:53.721Z,2.06
2023-01-31T05:25:54.965Z,2.14
2023-01-31T05:30:56.258Z,2.20
2023-01-31T05:35:57.478Z,2.21
2023-01-31T05:40:58.672Z,2.33
2023-01-31T05:45:59.946Z,2.41
2023-01-31T05:51:01.301Z,2.46
2023-01-31T05:56:02.650Z,2.51
2023-01-31T06:01:03.897Z,2.57
2023-01-31T06:06:05.212Z,2.59
2023-01-31T06:11:06.376Z,2.61
2023-01-31T06:16:07.602Z,2.61
2023-01-31T06:21:09.105Z,2.65
2023-01-31T06:26:10.512Z,2.72
2023-01-31T06:31:11.809Z,2.74
2023-01-31T06:36:13.161Z,2.76
2023-01-31T06:41:14.414Z,2.79
2023-01-31T06:46:15.631Z,2.85
2023-01-31T06:51:16.891Z,2.90
2023-01-31T06:56:18.142Z,2.97
2023-01-31T07:01:19.437Z,3.01
2023-01-31T07:06:21.593Z,3.07
2023-01-31T07:11:22.776Z,3.21
2023-01-31T07:16:25.421Z,3.27
2023-01-31T07:21:26.762Z,3.35
2023-01-31T07:26:28.041Z,3.42
2023-01-31T07:31:29.557Z,3.54
2023-01-31T07:36:31.230Z,3.58
2023-01-31T07:41:32.436Z,3.68
2023-01-31T07:46:33.610Z,3.82
2023-01-31T07:51:35.997Z,3.91
2023-01-31T07:56:37.250Z,3.98
2023-01-31T08:01:57.098Z,4.10
2023-01-31T08:07:01.415Z,4.19
2023-01-31T08:12:02.683Z,4.27
2023-01-31T08:17:03.936Z,4.34
2023-01-31T08:22:05.191Z,4.45
2023-01-31T08:27:06.361Z,4.51
2023-01-31T08:32:07.604Z,4.49
2023-01-31T08:37:09.227Z,4.53
2023-01-31T08:42:10.456Z,4.59
2023-01-31T08:47:11.650Z,4.62
2023-01-31T08:52:12.904Z,4.66
2023-01-31T08:57:14.105Z,4.68
2023-01-31T09:02:15.304Z,4.70
2023-01-31T09:07:16.592Z,4.77
2023-01-31T09:12:17.834Z,4.80
2023-01-31T09:17:19.073Z,4.87
2023-01-31T09:22:20.628Z,4.86
2023-01-31T09:27:21.811Z,4.79
2023-01-31T09:32:23.001Z,4.48
2023-01-31T09:37:24.278Z,4.77
2023-01-31T09:42:26.573Z,4.77
2023-01-31T09:47:29.675Z,4.77
2023-01-31T09:52:32.282Z,4.70
2023-01-31T09:57:33.513Z,4.70
2023-01-31T10:02:34.679Z,4.76
2023-01-31T10:07:36.155Z,4.79
2023-01-31T10:12:37.494Z,4.79
2023-01-31T10:17:39.242Z,4.82
2023-01-31T10:22:40.450Z,4.85
2023-01-31T10:27:41.646Z,4.93
2023-01-31T10:32:44.276Z,5.07
2023-01-31T10:37:45.518Z,5.13
2023-01-31T10:42:46.861Z,5.18
2023-01-31T10:47:48.614Z,5.16
2023-01-31T10:52:50.635Z,5.17
2023-01-31T10:57:52.077Z,5.17
2023-01-31T11:02:53.285Z,5.22
2023-01-31T11:07:54.528Z,5.29
2023-01-31T11:12:55.753Z,5.40
2023-01-31T11:17:56.941Z,5.52
2023-01-31T11:22:58.172Z,5.71
2023-01-31T11:27:59.356Z,5.88
2023-01-31T11:33:00.602Z,5.93
2023-01-31T11:38:01.935Z,5.97
2023-01-31T11:43:03.121Z,6.00
2023-01-31T11:48:04.348Z,6.03
2023-01-31T11:53:05.551Z,6.06
2023-01-31T11:58:06.806Z,6.11
2023-01-31T12:03:09.241Z,6.14
2023-01-31T12:08:10.608Z,6.14
2023-01-31T12:13:18.537Z,6.16
2023-01-31T12:18:20.290Z,6.18
2023-01-31T12:23:21.586Z,6.21
2023-01-31T12:28:22.809Z,6.19
2023-01-31T12:33:24.020Z,6.22
2023-01-31T12:38:25.244Z,6.29
2023-01-31T12:43:26.534Z,6.44
2023-01-31T12:48:27.787Z,6.49
2023-01-31T12:53:29.051Z,6.41
2023-01-31T12:58:30.303Z,6.35
2023-01-31T13:03:32.180Z,6.30
2023-01-31T13:08:33.358Z,6.27
2023-01-31T13:13:34.586Z,6.24
2023-01-31T13:18:35.913Z,6.23
2023-01-31T13:23:37.111Z,6.24
2023-01-31T13:28:38.314Z,6.24
2023-01-31T13:33:39.469Z,6.24
2023-01-31T13:38:40.676Z,6.24
2023-01-31T13:43:42.034Z,6.26
2023-01-31T13:48:43.245Z,6.27
2023-01-31T13:53:44.482Z,6.21
2023-01-31T13:58:45.958Z,6.08
2023-01-31T14:03:47.165Z,6.01
2023-01-31T14:08:49.814Z,5.94
2023-01-31T14:13:51.031Z,5.90
2023-01-31T14:18:52.257Z,5.86
2023-01-31T14:23:53.417Z,5.84
2023-01-31T14:28:54.663Z,5.83
2023-01-31T14:33:57.501Z,5.82
2023-01-31T14:38:58.789Z,5.83
2023-01-31T14:44:00.106Z,5.84
2023-01-31T14:49:02.768Z,5.86
2023-01-31T14:54:05.944Z,5.86
2023-01-31T14:59:07.214Z,5.87
2023-01-31T15:04:08.398Z,5.88
2023-01-31T15:09:09.660Z,5.88
2023-01-31T15:14:13.293Z,5.87
2023-01-31T15:19:20.470Z,5.89
2023-01-31T15:24:21.810Z,5.90
2023-01-31T15:29:23.042Z,5.90
2023-01-31T15:34:24.238Z,5.89
2023-01-31T15:39:27.043Z,5.90
2023-01-31T15:44:29.225Z,5.89
2023-01-31T15:49:39.688Z,5.90
2023-01-31T15:54:41.406Z,5.91
2023-01-31T15:59:42.632Z,5.92
2023-01-31T16:04:43.789Z,5.95
2023-01-31T16:09:45.075Z,5.96
2023-01-31T16:14:46.352Z,5.98
2023-01-31T16:19:47.526Z,5.99
2023-01-31T16:24:48.699Z,6.03
2023-01-31T16:29:50.007Z,6.02
2023-01-31T16:34:51.170Z,6.04
2023-01-31T16:39:52.542Z,6.05
2023-01-31T16:44:53.734Z,6.07
2023-01-31T16:49:54.899Z,6.09
2023-01-31T16:54:56.083Z,6.11
2023-01-31T16:59:57.397Z,6.13
2023-01-31T17:04:58.655Z,6.15
2023-01-31T17:09:59.911Z,6.16
2023-01-31T17:15:03.483Z,6.18
2023-01-31T17:20:05.305Z,6.19
2023-01-31T17:25:06.530Z,6.19
2023-01-31T17:30:07.728Z,6.19
2023-01-31T17:35:08.881Z,6.19
2023-01-31T17:40:10.041Z,6.20
2023-01-31T17:45:11.237Z,6.22
2023-01-31T17:50:12.418Z,6.26
2023-01-31T17:55:13.732Z,6.27
2023-01-31T18:00:15.273Z,6.26
2023-01-31T18:05:18.681Z,6.22
2023-01-31T18:10:21.643Z,6.14
2023-01-31T18:15:23.242Z,6.07
2023-01-31T18:20:24.534Z,6.03
2023-01-31T18:25:25.732Z,6.11
2023-01-31T18:30:26.934Z,6.08
2023-01-31T18:35:28.169Z,6.02
2023-01-31T18:40:29.334Z,5.91
2023-01-31T18:45:30.572Z,5.88
2023-01-31T18:50:31.744Z,5.95
2023-01-31T18:55:32.930Z,6.01
2023-01-31T19:00:34.240Z,6.08
2023-01-31T19:05:35.477Z,6.10
2023-01-31T19:10:36.662Z,6.13
2023-01-31T19:15:37.817Z,6.19
2023-01-31T19:20:38.969Z,6.21
2023-01-31T19:25:40.193Z,6.21
2023-01-31T19:30:41.457Z,6.24
2023-01-31T19:35:42.713Z,6.24
2023-01-31T19:40:43.938Z,6.20
2023-01-31T19:45:45.578Z,6.14
2023-01-31T19:50:46.810Z,6.19
2023-01-31T19:55:48.054Z,6.19
2023-01-31T20:00:49.359Z,6.22
2023-01-31T20:05:50.582Z,6.26
2023-01-31T20:10:51.785Z,6.20
2023-01-31T20:15:52.970Z,5.78
2023-01-31T20:20:54.126Z,5.08
2023-01-31T20:25:55.369Z,4.77
2023-01-31T20:30:56.638Z,4.67
2023-01-31T20:35:57.843Z,4.65
2023-01-31T20:40:59.139Z,4.67
2023-01-31T20:46:00.344Z,4.64
2023-01-31T20:51:01.609Z,4.63
2023-01-31T20:56:02.789Z,4.64
2023-01-31T21:01:06.159Z,4.64
2023-01-31T21:06:07.634Z,4.55
2023-01-31T21:11:08.811Z,4.44
2023-01-31T21:16:10.098Z,4.41
2023-01-31T21:21:11.293Z,4.42
2023-01-31T21:26:12.552Z,4.39
2023-01-31T21:31:16.734Z,4.42
2023-01-31T21:36:18.177Z,4.45
2023-01-31T21:41:37.941Z,4.58
2023-01-31T21:46:39.264Z,4.68
2023-01-31T21:51:40.498Z,4.82
2023-01-31T21:56:41.718Z,4.98
2023-01-31T22:01:42.967Z,5.10
2023-01-31T22:06:44.154Z,5.17
2023-01-31T22:11:46.735Z,5.28
2023-01-31T22:16:50.009Z,5.42
2023-01-31T22:21:51.266Z,5.50
2023-01-31T22:26:52.517Z,5.55
2023-01-31T22:31:56.007Z,5.57
2023-01-31T22:36:57.320Z,5.59
2023-01-31T22:41:58.500Z,5.58
2023-01-31T22:46:59.722Z,5.60
2023-01-31T22:52:01.010Z,5.64
2023-01-31T22:57:02.239Z,5.65
2023-01-31T23:02:03.414Z,5.65
2023-01-31T23:07:04.661Z,5.66
2023-01-31T23:12:05.825Z,5.65
2023-01-31T23:17:25.584Z,5.64
2023-01-31T23:22:26.800Z,5.63
2023-01-31T23:27:28.029Z,5.57
2023-01-31T23:32:29.244Z,5.54
2023-01-31T23:37:30.465Z,5.48
2023-01-31T23:42:31.656Z,5.51
2023-01-31T23:47:32.852Z,5.55
2023-01-31T23:52:34.038Z,5.56
2023-01-31T23:57:35.300Z,5.54
